createdAt,value
2022-07-26T00:01:22.095Z,21.27
2022-07-26T00:08:57.329Z,21.26
2022-07-26T00:16:31.478Z,21.25
2022-07-26T00:24:07.941Z,21.17
2022-07-26T00:31:41.847Z,21.16
2022-07-26T00:39:17.061Z,21.16
2022-07-26T00:46:50.805Z,21.09
2022-07-26T00:54:26.049Z,20.97
2022-07-26T01:01:59.965Z,20.97
2022-07-26T01:09:35.845Z,20.81
2022-07-26T01:17:09.660Z,20.74
2022-07-26T01:24:44.817Z,20.76
2022-07-26T01:32:19.580Z,20.73
2022-07-26T01:39:54.690Z,20.64
2022-07-26T01:47:28.636Z,20.62
2022-07-26T01:55:03.987Z,20.57
2022-07-26T02:02:37.926Z,20.58
2022-07-26T02:10:14.824Z,20.52
2022-07-26T02:17:48.836Z,20.50
2022-07-26T02:25:25.236Z,20.45
2022-07-26T02:32:59.022Z,20.41
2022-07-26T02:40:35.018Z,20.37
2022-07-26T02:48:09.307Z,20.33
2022-07-26T02:55:44.370Z,20.27
2022-07-26T03:03:18.037Z,20.21
2022-07-26T03:10:53.204Z,20.11
2022-07-26T03:18:26.894Z,19.99
2022-07-26T03:26:03.004Z,19.89
2022-07-26T03:33:36.786Z,19.79
2022-07-26T03:41:13.526Z,19.75
2022-07-26T03:48:47.690Z,19.67
2022-07-26T03:56:32.645Z,19.61
2022-07-26T04:04:06.880Z,19.55
2022-07-26T04:11:44.599Z,19.42
2022-07-26T04:19:18.508Z,19.35
2022-07-26T04:26:53.634Z,19.34
2022-07-26T04:34:27.360Z,19.32
2022-07-26T04:42:02.568Z,19.28
2022-07-26T04:49:36.302Z,19.24
2022-07-26T04:57:11.399Z,19.25
2022-07-26T05:04:45.456Z,19.30
2022-07-26T05:12:20.643Z,19.28
2022-07-26T05:19:55.044Z,19.25
2022-07-26T05:27:31.555Z,19.27
2022-07-26T05:35:06.680Z,19.23
2022-07-26T05:42:41.998Z,19.21
2022-07-26T05:50:15.710Z,19.22
2022-07-26T05:57:50.793Z,19.28
2022-07-26T06:05:24.618Z,19.36
2022-07-26T06:13:00.698Z,19.41
2022-07-26T06:20:35.038Z,19.54
2022-07-26T06:28:11.592Z,19.65
2022-07-26T06:35:45.363Z,19.70
2022-07-26T06:43:20.707Z,19.69
2022-07-26T06:50:54.511Z,19.77
2022-07-26T06:58:29.737Z,19.87
2022-07-26T07:06:03.648Z,20.01
2022-07-26T07:13:38.761Z,20.07
2022-07-26T07:21:12.520Z,20.17
2022-07-26T07:28:49.022Z,20.33
2022-07-26T07:36:22.975Z,20.46
2022-07-26T07:43:58.164Z,20.61
2022-07-26T07:51:32.369Z,20.83
2022-07-26T07:59:07.689Z,21.05
2022-07-26T08:06:42.413Z,21.17
2022-07-26T08:14:26.122Z,21.39
2022-07-26T08:22:00.020Z,21.74
2022-07-26T08:29:36.533Z,21.84
2022-07-26T08:37:18.222Z,22.01
2022-07-26T08:44:53.678Z,22.02
2022-07-26T08:52:27.420Z,22.30
2022-07-26T09:00:22.808Z,22.49
2022-07-26T09:07:57.068Z,22.65
2022-07-26T09:15:32.507Z,22.68
2022-07-26T09:23:08.161Z,22.81
2022-07-26T09:30:53.380Z,22.78
2022-07-26T09:38:27.971Z,23.07
2022-07-26T09:46:07.803Z,23.54
2022-07-26T09:53:43.090Z,23.79
2022-07-26T10:01:18.348Z,23.85
2022-07-26T10:08:54.305Z,23.66
2022-07-26T10:16:33.219Z,23.52
2022-07-26T10:24:26.429Z,23.48
2022-07-26T10:32:17.780Z,23.43
2022-07-26T10:40:11.120Z,23.45
2022-07-26T10:48:14.529Z,23.53
2022-07-26T10:55:53.956Z,23.52
2022-07-26T11:03:39.048Z,23.56
2022-07-26T11:11:12.812Z,23.52
2022-07-26T11:18:48.185Z,23.62
2022-07-26T11:26:23.433Z,23.87
2022-07-26T11:33:58.597Z,24.17
2022-07-26T11:41:34.891Z,24.26
2022-07-26T11:49:17.917Z,24.21
2022-07-26T11:56:56.225Z,24.21
2022-07-26T12:04:33.251Z,24.00
2022-07-26T12:12:09.730Z,23.06
2022-07-26T12:19:45.861Z,21.74
2022-07-26T12:27:21.446Z,21.07
2022-07-26T12:34:59.515Z,20.56
2022-07-26T12:42:38.626Z,20.48
2022-07-26T12:50:15.635Z,20.09
2022-07-26T12:57:50.045Z,20.17
2022-07-26T13:05:31.682Z,20.10
2022-07-26T13:13:06.534Z,20.09
2022-07-26T13:20:41.597Z,20.21
2022-07-26T13:28:15.907Z,20.08
2022-07-26T13:35:50.997Z,19.89
2022-07-26T13:43:25.678Z,20.07
2022-07-26T13:51:00.761Z,20.10
2022-07-26T13:58:34.346Z,20.35
2022-07-26T14:06:09.525Z,20.30
2022-07-26T14:13:43.348Z,20.26
2022-07-26T14:21:18.476Z,20.30
2022-07-26T14:28:52.308Z,20.39
2022-07-26T14:36:27.954Z,20.93
2022-07-26T14:44:02.356Z,21.06
2022-07-26T14:51:37.673Z,21.25
2022-07-26T14:59:11.580Z,21.21
2022-07-26T15:06:46.700Z,21.35
2022-07-26T15:14:20.415Z,21.64
2022-07-26T15:21:55.986Z,22.02
2022-07-26T15:29:30.208Z,22.18
2022-07-26T15:37:05.386Z,21.93
2022-07-26T15:44:39.624Z,21.72
2022-07-26T15:52:14.868Z,21.86
2022-07-26T15:59:49.305Z,21.97
2022-07-26T16:07:24.588Z,21.96
2022-07-26T16:14:58.375Z,22.01
2022-07-26T16:22:33.588Z,22.05
2022-07-26T16:30:08.291Z,22.09
2022-07-26T16:37:43.464Z,22.03
2022-07-26T16:45:17.535Z,22.23
2022-07-26T16:52:52.720Z,22.36
2022-07-26T17:00:26.608Z,22.21
2022-07-26T17:08:01.821Z,22.13
2022-07-26T17:15:35.783Z,22.32
2022-07-26T17:23:11.255Z,22.24
2022-07-26T17:30:45.263Z,22.21
2022-07-26T17:38:20.410Z,22.08
2022-07-26T17:45:56.849Z,21.95
2022-07-26T17:53:34.638Z,21.88
2022-07-26T18:01:08.983Z,21.82
2022-07-26T18:08:44.125Z,21.66
2022-07-26T18:16:18.786Z,21.46
2022-07-26T18:24:15.402Z,21.36
2022-07-26T18:31:48.272Z,21.22
2022-07-26T18:39:23.484Z,21.07
2022-07-26T18:46:57.328Z,20.98
2022-07-26T18:54:32.725Z,20.82
2022-07-26T19:02:06.673Z,20.65
2022-07-26T19:09:42.024Z,20.55
2022-07-26T19:17:15.743Z,20.37
2022-07-26T19:24:51.361Z,20.34
2022-07-26T19:32:28.106Z,20.24
2022-07-26T19:40:08.532Z,20.11
2022-07-26T19:47:42.355Z,19.95
2022-07-26T19:55:18.511Z,19.83
2022-07-26T20:02:53.394Z,19.69
2022-07-26T20:10:32.133Z,19.58
2022-07-26T20:18:06.516Z,19.45
2022-07-26T20:25:41.832Z,19.33
2022-07-26T20:33:16.628Z,19.18
2022-07-26T20:40:52.700Z,18.99
2022-07-26T20:48:27.330Z,18.82
2022-07-26T20:56:02.498Z,18.61
2022-07-26T21:03:36.243Z,18.59
2022-07-26T21:11:11.471Z,18.51
2022-07-26T21:18:45.406Z,18.42
2022-07-26T21:26:28.046Z,18.28
2022-07-26T21:34:01.712Z,18.16
2022-07-26T21:41:37.297Z,18.06
2022-07-26T21:49:11.396Z,17.99
2022-07-26T21:56:47.004Z,17.94
2022-07-26T22:04:22.320Z,17.89
2022-07-26T22:11:57.452Z,17.79
2022-07-26T22:19:31.179Z,17.73
2022-07-26T22:27:06.874Z,17.66
2022-07-26T22:34:40.628Z,17.57
2022-07-26T22:42:16.327Z,17.52
2022-07-26T22:49:50.318Z,17.48
2022-07-26T22:57:25.757Z,17.42
2022-07-26T23:04:59.575Z,17.38
2022-07-26T23:12:35.540Z,17.34
2022-07-26T23:20:11.379Z,17.33
2022-07-26T23:27:48.517Z,17.26
2022-07-26T23:35:22.371Z,17.14
2022-07-26T23:42:57.457Z,17.07
2022-07-26T23:50:31.084Z,16.99
2022-07-26T23:58:06.169Z,16.94
